Welcome!

Visit our other weather sites:

Template documentation
and downloads

And another site



There are no active watches, warnings or advisories

Nearby METAR Reports

   
KAVP - Albrightsville, PA
Updated: Jan 19 2020 2:54 pm
Overcast  
Overcast  
   Wind: NW 10.4 mph
Wind: NW 10.4 mph
Temperature: 32°F
Wind Chill: 24.8°F
Dew Point: 15.8°F
Humidity: 51%
Barometer: 29.85 inHg
Clouds: Overcast
Visibility: 10 mi
Cloud details: Overcast 1372 m
KAVP 192054Z 31009KT 10SM OVC045 00/M09 A2985 RMK AO2 SLP115 T00001094 53021
KIWA - Apache Junction, AZ
Updated: Jan 19 2020 2:50 pm
Few Clouds  
Few Clouds  
   Wind: NNE 5.8 mph
Wind: NNE 5.8 mph
Temperature: 71.6°F
Dew Point: 30.2°F
Humidity: 22%
Barometer: 30.12 inHg
Clouds: Few Clouds
Visibility: 10 mi
Cloud details: Few Clouds 6096 m
KIWA 192050Z 03005KT 10SM FEW200 22/M01 A3012
KPKB - Blue Rock, OH
Updated: Jan 19 2020 2:53 pm
Light Snow, Overcast  
Light Snow, Overcast  
   Wind: WNW 9.2 mph<br />Gust to 9.2 mph
Wind: WNW 9.2 mph
Gust to 9.2 mph
Temperature: 21.2°F
Wind Chill: 10.4°F
Dew Point: 12.2°F
Humidity: 68%
Barometer: 30.2 inHg
Clouds: Overcast
Visibility: 6 mi
Cloud details: Overcast 914 m
KPKB 192053Z 30008G19KT 6SM -SN OVC030 M06/M11 A3020 RMK AO2 SNB02 SLP235 P0000 60000 T10611111 $
KHVN - Branford, CT
Updated: Jan 19 2020 2:53 pm
Clear  
Clear  
   Wind: NW 10.4 mph<br />Gust to 10.4 mph
Wind: NW 10.4 mph
Gust to 10.4 mph
Temperature: 42.8°F
Wind Chill: 37.4°F
Dew Point: 24.8°F
Humidity: 49%
Barometer: 29.74 inHg
Clouds: Clear
Visibility: 10 mi
Cloud details: Clear
KHVN 192053Z 32009G18KT 10SM CLR 06/M04 A2974 RMK AO2 SLP070 T00561044 53020
KPHX - Carefree, AZ
Updated: Jan 19 2020 2:51 pm
Few Clouds  
Few Clouds  
   Wind: NE 18.4 mph
Wind: NE 18.4 mph
Temperature: 73.4°F
Dew Point: 26.6°F
Humidity: 17%
Barometer: 30.08 inHg
Clouds: Few Clouds
Visibility: 10 mi
Cloud details: Few Clouds 7620 m
KPHX 192051Z 05016KT 10SM FEW250 23/M03 A3008 RMK AO2 SLP176 T02331033 58033
 

Script developed by  Saratoga-weather.org Adapted for the template by  Weerstation Leuven